sensor_id;sensor_type;location;lat;lon;timestamp;temperature;humidity
4673;DHT22;61885;53.560;9.940;2022-08-19T00:00:51;19.30;99.90
4673;DHT22;61885;53.560;9.940;2022-08-19T00:03:21;19.30;99.90
4673;DHT22;61885;53.560;9.940;2022-08-19T00:05:57;19.30;99.90
4673;DHT22;61885;53.560;9.940;2022-08-19T00:08:26;19.30;99.90
4673;DHT22;61885;53.560;9.940;2022-08-19T00:10:56;19.20;99.90
4673;DHT22;61885;53.560;9.940;2022-08-19T00:13:26;19.20;99.90
4673;DHT22;61885;53.560;9.940;2022-08-19T00:15:56;19.30;99.90
4673;DHT22;61885;53.560;9.940;2022-08-19T00:18:27;19.30;99.90
4673;DHT22;61885;53.560;9.940;2022-08-19T00:20:59;19.30;99.90
4673;DHT22;61885;53.560;9.940;2022-08-19T00:23:29;19.30;99.90
4673;DHT22;61885;53.560;9.940;2022-08-19T00:26:00;19.20;99.90
4673;DHT22;61885;53.560;9.940;2022-08-19T00:28:30;19.30;99.90
4673;DHT22;61885;53.560;9.940;2022-08-19T00:31:02;19.20;99.90
4673;DHT22;61885;53.560;9.940;2022-08-19T00:33:33;19.20;99.90
4673;DHT22;61885;53.560;9.940;2022-08-19T00:36:07;19.20;99.90
4673;DHT22;61885;53.560;9.940;2022-08-19T00:38:38;19.30;99.90
4673;DHT22;61885;53.560;9.940;2022-08-19T00:41:12;19.30;99.90
4673;DHT22;61885;53.560;9.940;2022-08-19T00:43:41;19.20;99.90
4673;DHT22;61885;53.560;9.940;2022-08-19T00:46:11;19.20;99.90
4673;DHT22;61885;53.560;9.940;2022-08-19T00:48:41;19.20;99.90
4673;DHT22;61885;53.560;9.940;2022-08-19T00:51:13;19.20;99.90
4673;DHT22;61885;53.560;9.940;2022-08-19T00:53:43;19.10;99.90
4673;DHT22;61885;53.560;9.940;2022-08-19T00:56:12;19.10;99.90
4673;DHT22;61885;53.560;9.940;2022-08-19T00:58:43;19.10;99.90
4673;DHT22;61885;53.560;9.940;2022-08-19T01:01:13;19.10;99.90
4673;DHT22;61885;53.560;9.940;2022-08-19T01:03:43;19.10;99.90
4673;DHT22;61885;53.560;9.940;2022-08-19T01:06:15;19.10;99.90
4673;DHT22;61885;53.560;9.940;2022-08-19T01:08:45;19.20;99.90
4673;DHT22;61885;53.560;9.940;2022-08-19T01:11:15;19.20;99.90
4673;DHT22;61885;53.560;9.940;2022-08-19T01:13:45;19.20;99.90
4673;DHT22;61885;53.560;9.940;2022-08-19T01:16:17;19.20;99.90
4673;DHT22;61885;53.560;9.940;2022-08-19T01:18:47;19.10;99.90
4673;DHT22;61885;53.560;9.940;2022-08-19T01:21:26;19.20;99.90
4673;DHT22;61885;53.560;9.940;2022-08-19T01:23:59;19.10;99.90
4673;DHT22;61885;53.560;9.940;2022-08-19T01:26:29;19.10;99.90
4673;DHT22;61885;53.560;9.940;2022-08-19T01:29:01;19.10;99.90
4673;DHT22;61885;53.560;9.940;2022-08-19T01:31:31;19.10;99.90
4673;DHT22;61885;53.560;9.940;2022-08-19T01:34:01;19.10;99.90
4673;DHT22;61885;53.560;9.940;2022-08-19T01:36:34;19.10;99.90
4673;DHT22;61885;53.560;9.940;2022-08-19T01:39:08;19.10;99.90
4673;DHT22;61885;53.560;9.940;2022-08-19T01:41:38;19.10;99.90
4673;DHT22;61885;53.560;9.940;2022-08-19T01:44:09;19.10;99.90
4673;DHT22;61885;53.560;9.940;2022-08-19T01:46:39;19.20;99.90
4673;DHT22;61885;53.560;9.940;2022-08-19T01:49:10;19.10;99.90
4673;DHT22;61885;53.560;9.940;2022-08-19T01:51:39;19.20;99.90
4673;DHT22;61885;53.560;9.940;2022-08-19T01:54:13;19.10;99.90
4673;DHT22;61885;53.560;9.940;2022-08-19T01:56:43;19.20;99.90
4673;DHT22;61885;53.560;9.940;2022-08-19T01:59:14;19.10;99.90
4673;DHT22;61885;53.560;9.940;2022-08-19T02:01:45;19.00;99.90
4673;DHT22;61885;53.560;9.940;2022-08-19T02:04:15;18.90;99.90
4673;DHT22;61885;53.560;9.940;2022-08-19T02:06:45;18.80;99.90
4673;DHT22;61885;53.560;9.940;2022-08-19T02:09:17;18.90;99.90
4673;DHT22;61885;53.560;9.940;2022-08-19T02:11:46;18.80;99.90
4673;DHT22;61885;53.560;9.940;2022-08-19T02:14:16;18.90;99.90
4673;DHT22;61885;53.560;9.940;2022-08-19T02:16:45;18.80;99.90
4673;DHT22;61885;53.560;9.940;2022-08-19T02:19:15;18.80;99.90
4673;DHT22;61885;53.560;9.940;2022-08-19T02:21:45;20.90;99.90
4673;DHT22;61885;53.560;9.940;2022-08-19T02:24:17;18.70;99.90
4673;DHT22;61885;53.560;9.940;2022-08-19T02:26:46;18.70;99.90
4673;DHT22;61885;53.560;9.940;2022-08-19T02:29:16;18.80;99.90
4673;DHT22;61885;53.560;9.940;2022-08-19T02:31:46;18.70;99.90
4673;DHT22;61885;53.560;9.940;2022-08-19T02:34:16;18.70;99.90
4673;DHT22;61885;53.560;9.940;2022-08-19T02:36:46;18.70;99.90
4673;DHT22;61885;53.560;9.940;2022-08-19T02:39:18;18.70;99.90
4673;DHT22;61885;53.560;9.940;2022-08-19T02:41:45;18.70;99.90
4673;DHT22;61885;53.560;9.940;2022-08-19T02:44:15;18.70;99.90
4673;DHT22;61885;53.560;9.940;2022-08-19T02:46:46;18.60;99.90
4673;DHT22;61885;53.560;9.940;2022-08-19T02:49:16;18.60;99.90
4673;DHT22;61885;53.560;9.940;2022-08-19T02:51:46;18.60;99.90
4673;DHT22;61885;53.560;9.940;2022-08-19T02:54:18;18.60;99.90
4673;DHT22;61885;53.560;9.940;2022-08-19T02:56:48;18.60;99.90
4673;DHT22;61885;53.560;9.940;2022-08-19T02:59:18;18.60;99.90
4673;DHT22;61885;53.560;9.940;2022-08-19T03:01:47;18.60;99.90
4673;DHT22;61885;53.560;9.940;2022-08-19T03:04:17;18.70;99.90
4673;DHT22;61885;53.560;9.940;2022-08-19T03:06:47;18.60;99.90
4673;DHT22;61885;53.560;9.940;2022-08-19T03:09:20;18.50;99.90
4673;DHT22;61885;53.560;9.940;2022-08-19T03:11:50;18.50;99.90
4673;DHT22;61885;53.560;9.940;2022-08-19T03:14:19;18.50;99.90
4673;DHT22;61885;53.560;9.940;2022-08-19T03:16:51;18.50;99.90
4673;DHT22;61885;53.560;9.940;2022-08-19T03:19:21;18.40;99.90
4673;DHT22;61885;53.560;9.940;2022-08-19T03:21:51;18.40;99.90
4673;DHT22;61885;53.560;9.940;2022-08-19T03:24:24;18.40;99.90
4673;DHT22;61885;53.560;9.940;2022-08-19T03:26:55;18.40;99.90
4673;DHT22;61885;53.560;9.940;2022-08-19T03:29:26;18.40;99.90
4673;DHT22;61885;53.560;9.940;2022-08-19T03:31:57;18.50;99.90
4673;DHT22;61885;53.560;9.940;2022-08-19T03:34:29;18.50;99.90
4673;DHT22;61885;53.560;9.940;2022-08-19T03:37:04;18.50;99.90
4673;DHT22;61885;53.560;9.940;2022-08-19T03:39:40;18.50;99.90
4673;DHT22;61885;53.560;9.940;2022-08-19T03:42:10;18.40;99.90
4673;DHT22;61885;53.560;9.940;2022-08-19T03:44:40;18.40;99.90
4673;DHT22;61885;53.560;9.940;2022-08-19T03:47:13;18.40;99.90
4673;DHT22;61885;53.560;9.940;2022-08-19T03:49:43;18.40;99.90
4673;DHT22;61885;53.560;9.940;2022-08-19T03:52:13;18.30;99.90
4673;DHT22;61885;53.560;9.940;2022-08-19T03:54:46;18.30;99.90
4673;DHT22;61885;53.560;9.940;2022-08-19T03:57:15;18.30;99.90
4673;DHT22;61885;53.560;9.940;2022-08-19T03:59:45;18.20;99.90
4673;DHT22;61885;53.560;9.940;2022-08-19T04:02:14;18.20;99.90
4673;DHT22;61885;53.560;9.940;2022-08-19T04:04:44;18.20;99.90
4673;DHT22;61885;53.560;9.940;2022-08-19T04:07:14;18.20;99.90
4673;DHT22;61885;53.560;9.940;2022-08-19T04:12:20;18.20;99.90
4673;DHT22;61885;53.560;9.940;2022-08-19T04:14:50;18.20;99.90
4673;DHT22;61885;53.560;9.940;2022-08-19T04:17:19;18.20;99.90
4673;DHT22;61885;53.560;9.940;2022-08-19T04:19:49;18.40;99.90
4673;DHT22;61885;53.560;9.940;2022-08-19T04:22:18;18.50;99.90
4673;DHT22;61885;53.560;9.940;2022-08-19T04:24:51;18.70;99.90
4673;DHT22;61885;53.560;9.940;2022-08-19T04:27:20;18.70;99.90
4673;DHT22;61885;53.560;9.940;2022-08-19T04:29:50;18.60;99.90
4673;DHT22;61885;53.560;9.940;2022-08-19T04:32:20;18.60;99.90
4673;DHT22;61885;53.560;9.940;2022-08-19T04:34:50;18.50;99.90
4673;DHT22;61885;53.560;9.940;2022-08-19T04:37:23;18.60;99.90
4673;DHT22;61885;53.560;9.940;2022-08-19T04:39:55;18.60;99.90
4673;DHT22;61885;53.560;9.940;2022-08-19T04:42:37;18.50;99.90
4673;DHT22;61885;53.560;9.940;2022-08-19T04:45:11;18.40;99.90
4673;DHT22;61885;53.560;9.940;2022-08-19T04:47:42;18.30;99.90
4673;DHT22;61885;53.560;9.940;2022-08-19T04:50:13;18.40;99.90
4673;DHT22;61885;53.560;9.940;2022-08-19T04:52:43;18.50;99.90
4673;DHT22;61885;53.560;9.940;2022-08-19T04:55:15;18.60;99.90
4673;DHT22;61885;53.560;9.940;2022-08-19T04:57:45;18.60;99.90
4673;DHT22;61885;53.560;9.940;2022-08-19T05:00:15;18.60;99.90
4673;DHT22;61885;53.560;9.940;2022-08-19T05:02:45;18.60;99.90
4673;DHT22;61885;53.560;9.940;2022-08-19T05:05:16;18.50;99.90
4673;DHT22;61885;53.560;9.940;2022-08-19T05:07:46;18.40;99.90
4673;DHT22;61885;53.560;9.940;2022-08-19T05:10:18;18.30;99.90
4673;DHT22;61885;53.560;9.940;2022-08-19T05:12:48;18.20;99.90
4673;DHT22;61885;53.560;9.940;2022-08-19T05:15:17;18.10;99.90
4673;DHT22;61885;53.560;9.940;2022-08-19T05:17:47;18.10;99.90
4673;DHT22;61885;53.560;9.940;2022-08-19T05:20:30;18.00;99.90
4673;DHT22;61885;53.560;9.940;2022-08-19T05:23:12;18.00;99.90
4673;DHT22;61885;53.560;9.940;2022-08-19T05:25:46;18.00;99.90
4673;DHT22;61885;53.560;9.940;2022-08-19T05:28:16;18.00;99.90
4673;DHT22;61885;53.560;9.940;2022-08-19T05:30:45;18.00;99.90
4673;DHT22;61885;53.560;9.940;2022-08-19T05:33:17;18.10;99.90
4673;DHT22;61885;53.560;9.940;2022-08-19T05:35:48;18.00;99.90
4673;DHT22;61885;53.560;9.940;2022-08-19T05:38:19;18.10;99.90
4673;DHT22;61885;53.560;9.940;2022-08-19T05:40:51;18.00;99.90
4673;DHT22;61885;53.560;9.940;2022-08-19T05:43:20;18.00;99.90
4673;DHT22;61885;53.560;9.940;2022-08-19T05:45:50;18.00;99.90
4673;DHT22;61885;53.560;9.940;2022-08-19T05:48:20;18.00;99.90
4673;DHT22;61885;53.560;9.940;2022-08-19T05:50:50;18.00;99.90
4673;DHT22;61885;53.560;9.940;2022-08-19T05:53:19;18.00;99.90
4673;DHT22;61885;53.560;9.940;2022-08-19T05:55:51;18.00;99.90
4673;DHT22;61885;53.560;9.940;2022-08-19T05:58:21;17.90;99.90
4673;DHT22;61885;53.560;9.940;2022-08-19T06:00:51;18.10;99.90
4673;DHT22;61885;53.560;9.940;2022-08-19T06:03:21;18.00;99.90
4673;DHT22;61885;53.560;9.940;2022-08-19T06:05:50;17.90;99.90
4673;DHT22;61885;53.560;9.940;2022-08-19T06:08:20;17.90;99.90
4673;DHT22;61885;53.560;9.940;2022-08-19T06:10:53;18.00;99.90
4673;DHT22;61885;53.560;9.940;2022-08-19T06:15:53;18.10;99.90
4673;DHT22;61885;53.560;9.940;2022-08-19T06:18:22;18.00;99.90
4673;DHT22;61885;53.560;9.940;2022-08-19T06:20:52;18.10;99.90
4673;DHT22;61885;53.560;9.940;2022-08-19T06:23:22;18.10;99.90
4673;DHT22;61885;53.560;9.940;2022-08-19T06:25:54;18.10;99.90
4673;DHT22;61885;53.560;9.940;2022-08-19T06:28:24;18.30;99.90
4673;DHT22;61885;53.560;9.940;2022-08-19T06:30:53;18.20;99.90
4673;DHT22;61885;53.560;9.940;2022-08-19T06:33:23;18.30;99.90
4673;DHT22;61885;53.560;9.940;2022-08-19T06:35:53;18.30;99.90
4673;DHT22;61885;53.560;9.940;2022-08-19T06:41:02;18.50;99.90
4673;DHT22;61885;53.560;9.940;2022-08-19T06:43:32;18.60;99.90
4673;DHT22;61885;53.560;9.940;2022-08-19T06:46:03;18.70;99.90
4673;DHT22;61885;53.560;9.940;2022-08-19T06:48:35;18.70;99.90
4673;DHT22;61885;53.560;9.940;2022-08-19T06:51:05;18.70;99.90
4673;DHT22;61885;53.560;9.940;2022-08-19T06:53:34;18.80;99.90
4673;DHT22;61885;53.560;9.940;2022-08-19T06:56:08;18.80;99.90
4673;DHT22;61885;53.560;9.940;2022-08-19T06:58:39;18.70;99.90
4673;DHT22;61885;53.560;9.940;2022-08-19T07:01:09;18.80;99.90
4673;DHT22;61885;53.560;9.940;2022-08-19T07:03:39;18.90;99.90
4673;DHT22;61885;53.560;9.940;2022-08-19T07:06:11;18.90;99.90
4673;DHT22;61885;53.560;9.940;2022-08-19T07:08:44;18.90;99.90
4673;DHT22;61885;53.560;9.940;2022-08-19T07:11:18;19.00;99.90
4673;DHT22;61885;53.560;9.940;2022-08-19T07:13:48;19.00;99.90
4673;DHT22;61885;53.560;9.940;2022-08-19T07:16:18;19.00;99.90
4673;DHT22;61885;53.560;9.940;2022-08-19T07:18:51;18.90;99.90
4673;DHT22;61885;53.560;9.940;2022-08-19T07:21:23;19.00;99.90
4673;DHT22;61885;53.560;9.940;2022-08-19T07:23:55;19.10;99.90
4673;DHT22;61885;53.560;9.940;2022-08-19T07:26:31;19.20;99.90
4673;DHT22;61885;53.560;9.940;2022-08-19T07:29:02;19.20;99.90
4673;DHT22;61885;53.560;9.940;2022-08-19T07:31:32;19.40;99.90
4673;DHT22;61885;53.560;9.940;2022-08-19T07:34:08;19.40;99.90
4673;DHT22;61885;53.560;9.940;2022-08-19T07:36:39;19.30;99.90
4673;DHT22;61885;53.560;9.940;2022-08-19T07:39:14;19.30;99.90
4673;DHT22;61885;53.560;9.940;2022-08-19T07:41:52;19.40;99.90
4673;DHT22;61885;53.560;9.940;2022-08-19T07:44:22;19.40;99.90
4673;DHT22;61885;53.560;9.940;2022-08-19T07:46:56;19.60;99.90
4673;DHT22;61885;53.560;9.940;2022-08-19T07:49:28;19.60;99.90
4673;DHT22;61885;53.560;9.940;2022-08-19T07:52:01;19.80;99.90
4673;DHT22;61885;53.560;9.940;2022-08-19T07:54:38;19.80;99.90
4673;DHT22;61885;53.560;9.940;2022-08-19T07:57:19;19.80;99.90
4673;DHT22;61885;53.560;9.940;2022-08-19T08:00:05;19.50;99.90
4673;DHT22;61885;53.560;9.940;2022-08-19T08:02:41;19.60;99.90
4673;DHT22;61885;53.560;9.940;2022-08-19T08:05:13;19.60;99.90
4673;DHT22;61885;53.560;9.940;2022-08-19T08:07:55;19.70;99.90
4673;DHT22;61885;53.560;9.940;2022-08-19T08:10:37;19.80;99.90
4673;DHT22;61885;53.560;9.940;2022-08-19T08:13:10;19.70;99.90
4673;DHT22;61885;53.560;9.940;2022-08-19T08:15:39;19.50;99.90
4673;DHT22;61885;53.560;9.940;2022-08-19T08:18:11;19.30;99.90
4673;DHT22;61885;53.560;9.940;2022-08-19T08:20:41;19.30;99.90
4673;DHT22;61885;53.560;9.940;2022-08-19T08:23:10;19.40;99.90
4673;DHT22;61885;53.560;9.940;2022-08-19T08:25:54;19.50;99.90
4673;DHT22;61885;53.560;9.940;2022-08-19T08:28:27;19.60;99.90
4673;DHT22;61885;53.560;9.940;2022-08-19T08:30:57;19.60;99.90
4673;DHT22;61885;53.560;9.940;2022-08-19T08:33:28;19.60;99.90
4673;DHT22;61885;53.560;9.940;2022-08-19T08:35:59;19.70;99.90
4673;DHT22;61885;53.560;9.940;2022-08-19T08:38:32;19.80;99.90
4673;DHT22;61885;53.560;9.940;2022-08-19T08:41:10;19.90;99.90
4673;DHT22;61885;53.560;9.940;2022-08-19T08:43:50;20.10;99.90
4673;DHT22;61885;53.560;9.940;2022-08-19T08:46:24;20.00;99.90
4673;DHT22;61885;53.560;9.940;2022-08-19T08:48:59;20.00;99.90
4673;DHT22;61885;53.560;9.940;2022-08-19T08:51:34;20.00;99.90
4673;DHT22;61885;53.560;9.940;2022-08-19T08:54:06;20.10;99.90
4673;DHT22;61885;53.560;9.940;2022-08-19T08:56:38;20.20;99.90
4673;DHT22;61885;53.560;9.940;2022-08-19T08:59:16;20.20;99.90
4673;DHT22;61885;53.560;9.940;2022-08-19T09:01:48;20.20;99.90
4673;DHT22;61885;53.560;9.940;2022-08-19T09:04:18;20.20;99.90
4673;DHT22;61885;53.560;9.940;2022-08-19T09:06:55;20.30;99.90
4673;DHT22;61885;53.560;9.940;2022-08-19T09:09:29;20.20;99.90
4673;DHT22;61885;53.560;9.940;2022-08-19T09:12:08;20.10;99.90
4673;DHT22;61885;53.560;9.940;2022-08-19T09:14:47;19.80;99.90
4673;DHT22;61885;53.560;9.940;2022-08-19T09:17:19;20.10;99.90
4673;DHT22;61885;53.560;9.940;2022-08-19T09:19:58;20.30;99.90
4673;DHT22;61885;53.560;9.940;2022-08-19T09:22:31;20.60;99.90
4673;DHT22;61885;53.560;9.940;2022-08-19T09:25:02;20.50;99.90
4673;DHT22;61885;53.560;9.940;2022-08-19T09:27:32;20.60;99.90
4673;DHT22;61885;53.560;9.940;2022-08-19T09:30:10;20.30;99.90
4673;DHT22;61885;53.560;9.940;2022-08-19T09:32:40;20.40;99.90
4673;DHT22;61885;53.560;9.940;2022-08-19T09:35:11;20.40;99.90
4673;DHT22;61885;53.560;9.940;2022-08-19T09:37:42;20.20;99.90
4673;DHT22;61885;53.560;9.940;2022-08-19T09:40:12;20.30;99.90
4673;DHT22;61885;53.560;9.940;2022-08-19T09:42:42;20.40;99.90
4673;DHT22;61885;53.560;9.940;2022-08-19T09:45:17;20.40;99.90
4673;DHT22;61885;53.560;9.940;2022-08-19T09:47:47;20.30;99.90
4673;DHT22;61885;53.560;9.940;2022-08-19T09:50:19;20.10;99.90
4673;DHT22;61885;53.560;9.940;2022-08-19T09:52:49;20.10;99.90
4673;DHT22;61885;53.560;9.940;2022-08-19T09:55:19;20.00;99.90
4673;DHT22;61885;53.560;9.940;2022-08-19T09:57:49;20.00;99.90
4673;DHT22;61885;53.560;9.940;2022-08-19T10:00:21;20.20;99.90
4673;DHT22;61885;53.560;9.940;2022-08-19T10:02:51;20.50;99.90
4673;DHT22;61885;53.560;9.940;2022-08-19T10:05:20;20.60;99.90
4673;DHT22;61885;53.560;9.940;2022-08-19T10:08:02;20.50;99.90
4673;DHT22;61885;53.560;9.940;2022-08-19T10:10:35;20.30;99.90
4673;DHT22;61885;53.560;9.940;2022-08-19T10:13:04;20.10;99.90
4673;DHT22;61885;53.560;9.940;2022-08-19T10:15:37;20.00;99.90
4673;DHT22;61885;53.560;9.940;2022-08-19T10:18:07;20.20;99.90
4673;DHT22;61885;53.560;9.940;2022-08-19T10:20:37;20.20;99.90
4673;DHT22;61885;53.560;9.940;2022-08-19T10:23:10;20.20;99.90
4673;DHT22;61885;53.560;9.940;2022-08-19T10:25:40;20.10;99.90
4673;DHT22;61885;53.560;9.940;2022-08-19T10:28:10;20.10;99.90
4673;DHT22;61885;53.560;9.940;2022-08-19T10:30:45;20.20;99.90
4673;DHT22;61885;53.560;9.940;2022-08-19T10:33:15;20.20;99.90
4673;DHT22;61885;53.560;9.940;2022-08-19T10:35:45;20.10;99.90
4673;DHT22;61885;53.560;9.940;2022-08-19T10:38:15;20.10;99.90
4673;DHT22;61885;53.560;9.940;2022-08-19T10:40:45;20.10;99.90
4673;DHT22;61885;53.560;9.940;2022-08-19T10:43:14;20.20;99.90
4673;DHT22;61885;53.560;9.940;2022-08-19T10:45:51;20.10;99.90
4673;DHT22;61885;53.560;9.940;2022-08-19T10:48:21;20.10;99.90
4673;DHT22;61885;53.560;9.940;2022-08-19T10:50:50;20.00;99.90
4673;DHT22;61885;53.560;9.940;2022-08-19T10:53:32;20.00;99.90
4673;DHT22;61885;53.560;9.940;2022-08-19T10:56:02;20.00;99.90
4673;DHT22;61885;53.560;9.940;2022-08-19T10:58:44;20.10;99.90
4673;DHT22;61885;53.560;9.940;2022-08-19T11:01:17;20.10;99.90
4673;DHT22;61885;53.560;9.940;2022-08-19T11:03:47;20.20;99.90
4673;DHT22;61885;53.560;9.940;2022-08-19T11:06:17;20.30;99.90
4673;DHT22;61885;53.560;9.940;2022-08-19T11:08:46;20.40;99.90
4673;DHT22;61885;53.560;9.940;2022-08-19T11:11:16;20.70;99.90
4673;DHT22;61885;53.560;9.940;2022-08-19T11:13:50;20.70;99.90
4673;DHT22;61885;53.560;9.940;2022-08-19T11:16:25;20.70;99.90
4673;DHT22;61885;53.560;9.940;2022-08-19T11:18:57;20.80;99.90
4673;DHT22;61885;53.560;9.940;2022-08-19T11:21:30;20.90;99.90
4673;DHT22;61885;53.560;9.940;2022-08-19T11:24:02;20.90;99.90
4673;DHT22;61885;53.560;9.940;2022-08-19T11:26:33;21.30;99.90
4673;DHT22;61885;53.560;9.940;2022-08-19T11:29:04;21.50;99.90
4673;DHT22;61885;53.560;9.940;2022-08-19T11:31:42;21.50;99.90
4673;DHT22;61885;53.560;9.940;2022-08-19T11:34:14;21.20;99.90
4673;DHT22;61885;53.560;9.940;2022-08-19T11:36:46;21.50;99.90
4673;DHT22;61885;53.560;9.940;2022-08-19T11:39:18;21.70;99.90
4673;DHT22;61885;53.560;9.940;2022-08-19T11:41:48;21.80;99.90
4673;DHT22;61885;53.560;9.940;2022-08-19T11:44:18;21.80;99.90
4673;DHT22;61885;53.560;9.940;2022-08-19T11:46:50;21.90;99.90
4673;DHT22;61885;53.560;9.940;2022-08-19T11:49:21;21.90;99.90
4673;DHT22;61885;53.560;9.940;2022-08-19T11:51:50;22.00;99.90
4673;DHT22;61885;53.560;9.940;2022-08-19T11:54:20;22.10;99.90
4673;DHT22;61885;53.560;9.940;2022-08-19T11:56:50;22.00;99.90
4673;DHT22;61885;53.560;9.940;2022-08-19T11:59:21;21.90;99.90
4673;DHT22;61885;53.560;9.940;2022-08-19T12:01:53;21.80;99.90
4673;DHT22;61885;53.560;9.940;2022-08-19T12:04:23;21.50;99.90
4673;DHT22;61885;53.560;9.940;2022-08-19T12:06:53;21.20;99.90
4673;DHT22;61885;53.560;9.940;2022-08-19T12:09:23;21.20;99.90
4673;DHT22;61885;53.560;9.940;2022-08-19T12:11:53;21.30;99.90
4673;DHT22;61885;53.560;9.940;2022-08-19T12:14:23;21.60;99.90
4673;DHT22;61885;53.560;9.940;2022-08-19T12:16:57;21.80;99.90
4673;DHT22;61885;53.560;9.940;2022-08-19T12:19:28;22.00;99.90
4673;DHT22;61885;53.560;9.940;2022-08-19T12:21:59;22.20;99.90
4673;DHT22;61885;53.560;9.940;2022-08-19T12:24:31;22.60;99.90
4673;DHT22;61885;53.560;9.940;2022-08-19T12:27:03;23.00;99.90
4673;DHT22;61885;53.560;9.940;2022-08-19T12:29:33;23.00;96.90
4673;DHT22;61885;53.560;9.940;2022-08-19T12:32:05;23.00;95.00
4673;DHT22;61885;53.560;9.940;2022-08-19T12:34:35;23.00;96.50
4673;DHT22;61885;53.560;9.940;2022-08-19T12:37:06;23.30;92.90
4673;DHT22;61885;53.560;9.940;2022-08-19T12:39:37;23.50;90.10
4673;DHT22;61885;53.560;9.940;2022-08-19T12:42:08;23.80;81.30
4673;DHT22;61885;53.560;9.940;2022-08-19T12:44:40;23.70;78.10
4673;DHT22;61885;53.560;9.940;2022-08-19T12:47:13;23.70;79.40
4673;DHT22;61885;53.560;9.940;2022-08-19T12:49:43;23.70;76.90
4673;DHT22;61885;53.560;9.940;2022-08-19T12:52:13;23.60;75.30
4673;DHT22;61885;53.560;9.940;2022-08-19T12:54:47;23.40;80.60
4673;DHT22;61885;53.560;9.940;2022-08-19T12:57:18;23.60;79.00
4673;DHT22;61885;53.560;9.940;2022-08-19T12:59:51;23.60;76.10
4673;DHT22;61885;53.560;9.940;2022-08-19T13:02:24;23.80;75.40
4673;DHT22;61885;53.560;9.940;2022-08-19T13:04:58;23.80;75.00
4673;DHT22;61885;53.560;9.940;2022-08-19T13:07:28;23.30;78.60
4673;DHT22;61885;53.560;9.940;2022-08-19T13:09:58;23.40;79.20
4673;DHT22;61885;53.560;9.940;2022-08-19T13:12:27;23.20;80.50
4673;DHT22;61885;53.560;9.940;2022-08-19T13:14:57;23.10;84.30
4673;DHT22;61885;53.560;9.940;2022-08-19T13:20:00;22.90;87.80
4673;DHT22;61885;53.560;9.940;2022-08-19T13:25:02;22.80;89.50
4673;DHT22;61885;53.560;9.940;2022-08-19T13:27:32;22.80;88.00
4673;DHT22;61885;53.560;9.940;2022-08-19T13:30:05;23.00;86.40
4673;DHT22;61885;53.560;9.940;2022-08-19T13:32:55;23.00;84.50
4673;DHT22;61885;53.560;9.940;2022-08-19T13:35:43;23.00;85.00
4673;DHT22;61885;53.560;9.940;2022-08-19T13:38:16;23.10;82.90
4673;DHT22;61885;53.560;9.940;2022-08-19T13:40:47;23.20;83.50
4673;DHT22;61885;53.560;9.940;2022-08-19T13:43:21;23.20;81.20
4673;DHT22;61885;53.560;9.940;2022-08-19T13:45:52;23.10;79.50
4673;DHT22;61885;53.560;9.940;2022-08-19T13:48:26;23.00;82.30
4673;DHT22;61885;53.560;9.940;2022-08-19T13:50:55;22.90;82.90
4673;DHT22;61885;53.560;9.940;2022-08-19T13:53:25;23.30;70.30
4673;DHT22;61885;53.560;9.940;2022-08-19T13:55:56;23.30;70.90
4673;DHT22;61885;53.560;9.940;2022-08-19T14:00:57;23.30;71.50
4673;DHT22;61885;53.560;9.940;2022-08-19T14:06:00;23.10;73.10
4673;DHT22;61885;53.560;9.940;2022-08-19T14:08:30;23.00;73.90
4673;DHT22;61885;53.560;9.940;2022-08-19T14:13:30;22.90;81.70
4673;DHT22;61885;53.560;9.940;2022-08-19T14:16:00;26.10;87.40
4673;DHT22;61885;53.560;9.940;2022-08-19T14:18:36;22.80;86.10
4673;DHT22;61885;53.560;9.940;2022-08-19T14:21:07;22.70;83.80
4673;DHT22;61885;53.560;9.940;2022-08-19T14:23:37;22.80;82.20
4673;DHT22;61885;53.560;9.940;2022-08-19T14:26:08;22.90;79.80
4673;DHT22;61885;53.560;9.940;2022-08-19T14:28:38;23.10;75.80
4673;DHT22;61885;53.560;9.940;2022-08-19T14:31:08;23.30;73.40
4673;DHT22;61885;53.560;9.940;2022-08-19T14:33:40;23.60;70.60
4673;DHT22;61885;53.560;9.940;2022-08-19T14:36:10;25.20;34.70
4673;DHT22;61885;53.560;9.940;2022-08-19T14:38:40;25.30;32.90
4673;DHT22;61885;53.560;9.940;2022-08-19T14:41:13;25.50;26.50
4673;DHT22;61885;53.560;9.940;2022-08-19T14:43:44;24.80;33.70
4673;DHT22;61885;53.560;9.940;2022-08-19T14:46:16;24.80;32.70
4673;DHT22;61885;53.560;9.940;2022-08-19T14:48:49;24.50;35.10
4673;DHT22;61885;53.560;9.940;2022-08-19T14:51:20;24.20;39.50
4673;DHT22;61885;53.560;9.940;2022-08-19T14:53:50;24.40;38.50
4673;DHT22;61885;53.560;9.940;2022-08-19T14:56:22;24.50;34.80
4673;DHT22;61885;53.560;9.940;2022-08-19T14:58:53;24.30;38.00
4673;DHT22;61885;53.560;9.940;2022-08-19T15:01:25;24.30;36.40
4673;DHT22;61885;53.560;9.940;2022-08-19T15:03:58;24.10;39.10
4673;DHT22;61885;53.560;9.940;2022-08-19T15:06:28;23.90;41.80
4673;DHT22;61885;53.560;9.940;2022-08-19T15:08:59;23.90;44.60
4673;DHT22;61885;53.560;9.940;2022-08-19T15:11:30;23.80;44.50
4673;DHT22;61885;53.560;9.940;2022-08-19T15:14:05;23.70;47.00
4673;DHT22;61885;53.560;9.940;2022-08-19T15:16:36;24.30;38.70
4673;DHT22;61885;53.560;9.940;2022-08-19T15:19:12;24.30;38.70
4673;DHT22;61885;53.560;9.940;2022-08-19T15:21:42;24.50;33.90
4673;DHT22;61885;53.560;9.940;2022-08-19T15:24:12;24.80;28.60
4673;DHT22;61885;53.560;9.940;2022-08-19T15:26:42;25.00;24.70
4673;DHT22;61885;53.560;9.940;2022-08-19T15:29:11;25.30;20.00
4673;DHT22;61885;53.560;9.940;2022-08-19T15:31:42;25.60;17.00
4673;DHT22;61885;53.560;9.940;2022-08-19T15:34:15;26.30;8.90
4673;DHT22;61885;53.560;9.940;2022-08-19T15:36:44;27.10;1.00
4673;DHT22;61885;53.560;9.940;2022-08-19T15:39:14;27.30;1.00
4673;DHT22;61885;53.560;9.940;2022-08-19T15:41:46;26.70;1.00
4673;DHT22;61885;53.560;9.940;2022-08-19T15:44:18;26.50;1.00
4673;DHT22;61885;53.560;9.940;2022-08-19T15:46:48;26.30;1.00
4673;DHT22;61885;53.560;9.940;2022-08-19T15:49:20;26.20;1.00
4673;DHT22;61885;53.560;9.940;2022-08-19T15:51:50;26.90;1.00
4673;DHT22;61885;53.560;9.940;2022-08-19T15:54:23;27.50;1.00
4673;DHT22;61885;53.560;9.940;2022-08-19T15:56:53;28.00;1.00
4673;DHT22;61885;53.560;9.940;2022-08-19T15:59:36;28.10;1.00
4673;DHT22;61885;53.560;9.940;2022-08-19T16:02:20;27.10;1.00
4673;DHT22;61885;53.560;9.940;2022-08-19T16:05:10;26.70;1.00
4673;DHT22;61885;53.560;9.940;2022-08-19T16:07:53;26.20;1.00
4673;DHT22;61885;53.560;9.940;2022-08-19T16:10:23;26.80;1.00
4673;DHT22;61885;53.560;9.940;2022-08-19T16:12:53;27.20;1.00
4673;DHT22;61885;53.560;9.940;2022-08-19T16:15:23;27.00;1.00
4673;DHT22;61885;53.560;9.940;2022-08-19T16:17:53;26.60;1.00
4673;DHT22;61885;53.560;9.940;2022-08-19T16:20:28;25.70;1.00
4673;DHT22;61885;53.560;9.940;2022-08-19T16:22:58;26.00;1.00
4673;DHT22;61885;53.560;9.940;2022-08-19T16:25:29;26.30;1.00
4673;DHT22;61885;53.560;9.940;2022-08-19T16:27:59;27.10;1.00
4673;DHT22;61885;53.560;9.940;2022-08-19T16:32:59;29.40;1.00
4673;DHT22;61885;53.560;9.940;2022-08-19T16:35:31;29.70;1.00
4673;DHT22;61885;53.560;9.940;2022-08-19T16:40:34;27.90;1.00